createdAt,value
2019-05-29T00:00:26.588Z,0.00
2019-05-29T00:01:26.550Z,0.00
2019-05-29T00:02:26.570Z,0.00
2019-05-29T00:03:26.530Z,0.00
2019-05-29T00:04:26.518Z,0.00
2019-05-29T00:05:26.532Z,0.00
2019-05-29T00:06:26.496Z,0.00
2019-05-29T00:07:26.491Z,0.00
2019-05-29T00:08:26.470Z,0.00
2019-05-29T00:09:26.463Z,0.00
2019-05-29T00:10:26.456Z,0.00
2019-05-29T00:11:26.460Z,0.00
2019-05-29T00:12:26.424Z,0.00
2019-05-29T00:13:26.414Z,0.00
2019-05-29T00:14:27.617Z,0.00
2019-05-29T00:15:26.390Z,0.00
2019-05-29T00:16:26.394Z,0.00
2019-05-29T00:17:26.398Z,0.00
2019-05-29T00:18:26.360Z,0.00
2019-05-29T00:19:26.346Z,0.00
2019-05-29T00:20:26.348Z,0.00
2019-05-29T00:21:26.318Z,0.00
2019-05-29T00:22:26.328Z,0.00
2019-05-29T00:23:26.302Z,0.00
2019-05-29T00:24:26.315Z,0.00
2019-05-29T00:25:26.298Z,0.00
2019-05-29T00:26:26.270Z,0.00
2019-05-29T00:27:26.264Z,0.00
2019-05-29T00:28:26.259Z,0.00
2019-05-29T00:29:26.249Z,0.00
2019-05-29T00:30:26.224Z,0.00
2019-05-29T00:31:26.212Z,0.00
2019-05-29T00:32:26.196Z,0.00
2019-05-29T00:33:26.207Z,0.00
2019-05-29T00:34:26.183Z,0.00
2019-05-29T00:35:26.184Z,0.00
2019-05-29T00:36:26.152Z,0.00
2019-05-29T00:37:26.148Z,0.00
2019-05-29T00:38:26.139Z,0.00
2019-05-29T00:39:26.118Z,0.00
2019-05-29T00:40:26.107Z,0.00
2019-05-29T00:41:26.096Z,0.00
2019-05-29T00:42:26.091Z,0.00
2019-05-29T00:43:26.072Z,0.00
2019-05-29T00:44:34.277Z,0.00
2019-05-29T00:45:27.055Z,0.00
2019-05-29T00:46:26.048Z,0.00
2019-05-29T00:47:26.028Z,0.00
2019-05-29T00:48:26.018Z,0.00
2019-05-29T00:49:26.015Z,0.00
2019-05-29T00:50:26.010Z,0.00
2019-05-29T00:51:25.982Z,0.00
2019-05-29T00:52:25.977Z,0.00
2019-05-29T00:53:25.957Z,0.00
2019-05-29T00:54:25.948Z,0.00
2019-05-29T00:55:25.947Z,0.00
2019-05-29T00:56:25.931Z,0.00
2019-05-29T00:57:25.914Z,0.00
2019-05-29T00:58:25.906Z,0.00
2019-05-29T00:59:25.888Z,0.00
2019-05-29T01:00:25.889Z,0.00
2019-05-29T01:01:25.886Z,0.00
2019-05-29T01:02:25.856Z,0.00
2019-05-29T01:03:25.864Z,0.00
2019-05-29T01:04:25.838Z,0.00
2019-05-29T01:05:25.831Z,0.00
2019-05-29T01:06:25.823Z,0.00
2019-05-29T01:07:25.800Z,0.00
2019-05-29T01:08:25.792Z,0.00
2019-05-29T01:09:25.781Z,0.00
2019-05-29T01:10:25.760Z,0.00
2019-05-29T01:11:25.773Z,0.00
2019-05-29T01:12:25.740Z,0.00
2019-05-29T01:13:25.732Z,0.00
2019-05-29T01:14:25.716Z,0.00
2019-05-29T01:15:25.710Z,0.00
2019-05-29T01:16:25.722Z,0.00
2019-05-29T01:17:25.686Z,0.00
2019-05-29T01:18:25.678Z,0.00
2019-05-29T01:19:25.668Z,0.00
2019-05-29T01:20:25.654Z,0.00
2019-05-29T01:21:25.640Z,0.00
2019-05-29T01:22:25.639Z,0.00
2019-05-29T01:23:25.635Z,0.00
2019-05-29T01:24:25.686Z,0.00
2019-05-29T01:25:25.592Z,0.00
2019-05-29T01:26:25.579Z,0.00
2019-05-29T01:27:25.568Z,0.00
2019-05-29T01:28:25.559Z,0.00
2019-05-29T01:29:25.549Z,0.00
2019-05-29T01:30:25.552Z,0.00
2019-05-29T01:31:25.525Z,0.00
2019-05-29T01:32:25.558Z,0.00
2019-05-29T01:33:25.521Z,0.00
2019-05-29T01:34:25.532Z,0.00
2019-05-29T01:35:25.491Z,0.00
2019-05-29T01:36:25.474Z,0.00
2019-05-29T01:37:26.447Z,0.00
2019-05-29T01:38:25.445Z,0.00
2019-05-29T01:39:25.439Z,0.00
2019-05-29T01:40:28.315Z,0.00
2019-05-29T01:41:25.425Z,0.00
2019-05-29T01:42:25.410Z,0.00
2019-05-29T01:43:25.389Z,0.00
2019-05-29T01:44:25.384Z,0.00
2019-05-29T01:45:25.434Z,0.00
2019-05-29T01:46:25.355Z,0.00
2019-05-29T01:47:25.349Z,0.00
2019-05-29T01:48:25.336Z,0.00
2019-05-29T01:49:25.321Z,0.00
2019-05-29T01:50:25.312Z,0.00
2019-05-29T01:51:25.307Z,0.00
2019-05-29T01:52:25.290Z,0.00
2019-05-29T01:53:25.277Z,0.00
2019-05-29T01:54:25.326Z,0.00
2019-05-29T01:55:25.253Z,0.00
2019-05-29T01:56:25.254Z,0.00
2019-05-29T01:57:25.246Z,0.00
2019-05-29T01:58:25.224Z,0.00
2019-05-29T01:59:25.281Z,0.00
2019-05-29T02:00:25.198Z,0.00
2019-05-29T02:01:25.191Z,0.00
2019-05-29T02:02:25.208Z,0.00
2019-05-29T02:03:25.166Z,0.00
2019-05-29T02:04:25.333Z,0.00
2019-05-29T02:05:25.146Z,0.00
2019-05-29T02:06:25.131Z,0.00
2019-05-29T02:07:25.118Z,0.00
2019-05-29T02:08:25.111Z,0.00
2019-05-29T02:09:25.104Z,0.00
2019-05-29T02:10:26.254Z,0.00
2019-05-29T02:11:25.080Z,0.00
2019-05-29T02:12:25.067Z,0.00
2019-05-29T02:13:25.051Z,0.00
2019-05-29T02:14:25.043Z,0.00
2019-05-29T02:15:32.158Z,0.00
2019-05-29T02:16:26.934Z,0.00
2019-05-29T02:17:25.015Z,0.00
2019-05-29T02:18:25.148Z,0.00
2019-05-29T02:19:25.040Z,0.00
2019-05-29T02:20:25.254Z,0.00
2019-05-29T02:21:24.959Z,0.00
2019-05-29T02:22:25.104Z,0.00
2019-05-29T02:23:24.940Z,0.00
2019-05-29T02:24:25.419Z,0.00
2019-05-29T02:25:24.917Z,0.00
2019-05-29T02:26:24.903Z,0.00
2019-05-29T02:27:25.582Z,0.00
2019-05-29T02:28:24.881Z,0.00
2019-05-29T02:29:24.956Z,0.00
2019-05-29T02:30:27.825Z,0.00
2019-05-29T02:31:27.041Z,0.00
2019-05-29T02:32:25.599Z,0.00
2019-05-29T02:33:26.336Z,0.00
2019-05-29T02:34:25.539Z,0.00
2019-05-29T02:35:26.840Z,0.00
2019-05-29T02:36:26.650Z,0.00
2019-05-29T02:37:26.118Z,0.00
2019-05-29T02:38:25.481Z,0.00
2019-05-29T02:39:25.649Z,0.00
2019-05-29T02:40:26.359Z,0.00
2019-05-29T02:41:26.200Z,0.00
2019-05-29T02:42:25.153Z,0.00
2019-05-29T02:43:26.022Z,0.00
2019-05-29T02:44:25.417Z,5.62
2019-05-29T02:45:45.865Z,5.62
2019-05-29T02:46:26.411Z,5.62
2019-05-29T02:47:26.001Z,5.62
2019-05-29T02:48:25.079Z,5.62
2019-05-29T02:49:25.773Z,5.62
2019-05-29T02:50:26.523Z,5.62
2019-05-29T02:51:26.367Z,5.62
2019-05-29T02:52:26.109Z,5.62
2019-05-29T02:53:26.153Z,5.62
2019-05-29T02:54:25.412Z,5.62
2019-05-29T02:55:24.641Z,5.62
2019-05-29T02:56:24.891Z,5.62
2019-05-29T02:57:24.708Z,5.62
2019-05-29T02:58:25.820Z,5.62
2019-05-29T02:59:25.642Z,5.62
2019-05-29T03:00:25.794Z,5.62
2019-05-29T03:01:25.522Z,5.62
2019-05-29T03:02:25.539Z,5.62
2019-05-29T03:03:26.818Z,11.25
2019-05-29T03:04:26.177Z,11.25
2019-05-29T03:05:25.946Z,11.25
2019-05-29T03:06:26.089Z,22.50
2019-05-29T03:07:26.142Z,45.00
2019-05-29T03:08:24.831Z,45.00
2019-05-29T03:09:24.734Z,33.75
2019-05-29T03:10:24.817Z,28.12
2019-05-29T03:11:25.177Z,28.12
2019-05-29T03:12:25.016Z,33.75
2019-05-29T03:13:25.522Z,33.75
2019-05-29T03:14:25.272Z,28.12
2019-05-29T03:15:25.585Z,16.88
2019-05-29T03:16:26.095Z,16.88
2019-05-29T03:17:25.685Z,16.88
2019-05-29T03:18:25.709Z,16.88
2019-05-29T03:19:25.796Z,22.50
2019-05-29T03:20:25.695Z,22.50
2019-05-29T03:21:25.941Z,22.50
2019-05-29T03:22:24.273Z,22.50
2019-05-29T03:23:24.372Z,22.50
2019-05-29T03:24:24.553Z,28.12
2019-05-29T03:25:24.402Z,28.12
2019-05-29T03:26:26.849Z,39.38
2019-05-29T03:27:25.593Z,33.75
2019-05-29T03:28:25.608Z,39.38
2019-05-29T03:29:25.766Z,33.75
2019-05-29T03:30:26.962Z,39.38
2019-05-29T03:31:29.924Z,39.38
2019-05-29T03:32:28.021Z,39.38
2019-05-29T03:33:30.453Z,45.00
2019-05-29T03:34:30.457Z,45.00
2019-05-29T03:35:28.360Z,45.00
2019-05-29T03:36:28.358Z,50.62
2019-05-29T03:37:26.271Z,50.62
2019-05-29T03:38:24.085Z,56.25
2019-05-29T03:39:24.080Z,50.62
2019-05-29T03:40:24.067Z,50.62
2019-05-29T03:41:24.059Z,50.62
2019-05-29T03:42:24.059Z,50.62
2019-05-29T03:43:24.141Z,50.62
2019-05-29T03:44:24.017Z,50.62
2019-05-29T03:45:24.010Z,56.25
2019-05-29T03:46:31.600Z,56.25
2019-05-29T03:47:26.787Z,56.25
2019-05-29T03:48:25.821Z,56.25
2019-05-29T03:49:23.969Z,56.25
2019-05-29T03:50:23.951Z,56.25
2019-05-29T03:51:23.943Z,56.25
2019-05-29T03:52:23.955Z,56.25
2019-05-29T03:53:23.931Z,56.25
2019-05-29T03:54:23.924Z,50.62
2019-05-29T03:55:23.896Z,50.62
2019-05-29T03:56:23.895Z,50.62
2019-05-29T03:57:23.869Z,50.62
2019-05-29T03:58:23.867Z,50.62
2019-05-29T03:59:23.875Z,45.00
2019-05-29T04:00:23.845Z,45.00
2019-05-29T04:01:23.879Z,50.62
2019-05-29T04:02:23.821Z,50.62
2019-05-29T04:03:23.809Z,50.62
2019-05-29T04:04:23.799Z,50.62
2019-05-29T04:05:23.775Z,56.25
2019-05-29T04:06:23.767Z,56.25
2019-05-29T04:07:23.765Z,56.25
2019-05-29T04:08:23.753Z,56.25
2019-05-29T04:09:23.745Z,56.25
2019-05-29T04:10:23.735Z,56.25
2019-05-29T04:11:23.727Z,61.88
2019-05-29T04:12:23.701Z,61.88
2019-05-29T04:13:23.689Z,61.88
2019-05-29T04:14:23.677Z,67.50
2019-05-29T04:15:23.681Z,73.12
2019-05-29T04:16:23.683Z,78.75
2019-05-29T04:17:23.647Z,78.75
2019-05-29T04:18:23.633Z,84.38
2019-05-29T04:19:23.625Z,84.38
2019-05-29T04:20:23.610Z,90.00
2019-05-29T04:21:23.605Z,90.00
2019-05-29T04:22:23.590Z,90.00
2019-05-29T04:23:23.574Z,95.62
2019-05-29T04:24:23.601Z,95.62
2019-05-29T04:25:23.556Z,95.62
2019-05-29T04:26:23.543Z,95.62
2019-05-29T04:27:23.547Z,101.25
2019-05-29T04:28:23.517Z,106.88
2019-05-29T04:29:23.532Z,106.88
2019-05-29T04:30:23.517Z,112.50
2019-05-29T04:31:23.485Z,118.12
2019-05-29T04:32:23.489Z,118.12
2019-05-29T04:33:23.467Z,123.75
2019-05-29T04:34:23.450Z,123.75
2019-05-29T04:35:23.437Z,135.00
2019-05-29T04:36:23.427Z,140.62
2019-05-29T04:37:23.425Z,146.25
2019-05-29T04:38:23.418Z,151.88
2019-05-29T04:39:23.392Z,157.50
2019-05-29T04:40:23.383Z,163.12
2019-05-29T04:41:23.371Z,168.75
2019-05-29T04:42:23.361Z,174.38
2019-05-29T04:43:23.356Z,174.38
2019-05-29T04:44:23.338Z,180.00
2019-05-29T04:45:23.327Z,191.25
2019-05-29T04:46:23.316Z,196.88
2019-05-29T04:47:23.306Z,208.12
2019-05-29T04:48:23.324Z,219.38
2019-05-29T04:49:23.320Z,230.62
2019-05-29T04:50:23.278Z,236.25
2019-05-29T04:51:23.255Z,241.88
2019-05-29T04:52:23.249Z,253.12
2019-05-29T04:53:23.233Z,258.75
2019-05-29T04:54:23.226Z,264.38
2019-05-29T04:55:23.244Z,275.62
2019-05-29T04:56:23.201Z,292.50
2019-05-29T04:57:23.192Z,309.38
2019-05-29T04:58:23.175Z,326.25
2019-05-29T04:59:23.174Z,343.12
2019-05-29T05:00:23.177Z,376.88
2019-05-29T05:01:23.139Z,410.62
2019-05-29T05:02:23.138Z,416.25
2019-05-29T05:03:23.122Z,427.50
2019-05-29T05:04:23.124Z,500.62
2019-05-29T05:05:23.109Z,399.38
2019-05-29T05:06:23.083Z,337.50
2019-05-29T05:07:23.168Z,343.12
2019-05-29T05:08:23.229Z,360.00
2019-05-29T05:09:23.079Z,365.62
2019-05-29T05:10:23.043Z,348.75
2019-05-29T05:11:23.049Z,331.88
2019-05-29T05:12:23.018Z,337.50
2019-05-29T05:13:23.014Z,337.50
2019-05-29T05:14:22.997Z,343.12
2019-05-29T05:15:22.998Z,360.00
2019-05-29T05:16:22.976Z,388.12
2019-05-29T05:17:26.182Z,393.75
2019-05-29T05:18:22.981Z,410.62
2019-05-29T05:19:22.960Z,455.62
2019-05-29T05:20:22.934Z,562.50
2019-05-29T05:21:22.920Z,590.62
2019-05-29T05:22:22.912Z,540.00
2019-05-29T05:23:43.916Z,680.62
2019-05-29T05:24:22.886Z,866.25
2019-05-29T05:25:22.874Z,1231.88
2019-05-29T05:26:22.866Z,1271.25
2019-05-29T05:27:22.859Z,2317.50
2019-05-29T05:28:22.853Z,1980.00
2019-05-29T05:29:22.825Z,680.62
2019-05-29T05:30:22.818Z,798.75
2019-05-29T05:31:22.800Z,1023.75
2019-05-29T05:32:22.808Z,1096.88
2019-05-29T05:33:22.835Z,1254.38
2019-05-29T05:34:22.799Z,1125.00
2019-05-29T05:35:22.759Z,1080.00
2019-05-29T05:36:22.746Z,697.50
2019-05-29T05:37:22.755Z,708.75
2019-05-29T05:38:22.730Z,725.62
2019-05-29T05:39:23.227Z,826.88
2019-05-29T05:40:22.705Z,753.75
2019-05-29T05:41:22.693Z,731.25
2019-05-29T05:42:22.678Z,748.12
2019-05-29T05:43:24.491Z,686.25
2019-05-29T05:44:22.665Z,759.38
2019-05-29T05:45:22.656Z,663.75
2019-05-29T05:46:24.740Z,652.50
2019-05-29T05:47:22.647Z,646.88
2019-05-29T05:48:22.702Z,646.88
2019-05-29T05:49:22.596Z,652.50
2019-05-29T05:50:22.598Z,652.50
2019-05-29T05:51:22.603Z,658.12
2019-05-29T05:52:22.565Z,669.38
2019-05-29T05:53:22.557Z,675.00
2019-05-29T05:54:22.541Z,680.62
2019-05-29T05:55:22.540Z,691.88
2019-05-29T05:56:22.538Z,703.12
2019-05-29T05:57:22.514Z,714.38
2019-05-29T05:58:22.498Z,720.00
2019-05-29T05:59:22.502Z,720.00
2019-05-29T06:00:22.472Z,725.62
2019-05-29T06:01:22.474Z,708.75
2019-05-29T06:02:22.602Z,680.62
2019-05-29T06:03:22.494Z,658.12
2019-05-29T06:04:22.430Z,641.25
2019-05-29T06:05:22.418Z,618.75
2019-05-29T06:06:22.414Z,590.62
2019-05-29T06:07:22.422Z,562.50
2019-05-29T06:08:22.386Z,545.62
2019-05-29T06:09:22.384Z,523.12
2019-05-29T06:10:22.371Z,511.88
2019-05-29T06:11:22.361Z,528.75
2019-05-29T06:12:22.345Z,517.50
2019-05-29T06:13:22.324Z,511.88
2019-05-29T06:14:22.316Z,489.38
2019-05-29T06:15:22.308Z,466.88
2019-05-29T06:16:22.377Z,450.00
2019-05-29T06:17:22.286Z,455.62
2019-05-29T06:18:22.276Z,450.00
2019-05-29T06:19:22.264Z,438.75
2019-05-29T06:20:22.407Z,433.12
2019-05-29T06:21:22.235Z,427.50
2019-05-29T06:22:22.230Z,416.25
2019-05-29T06:23:22.227Z,410.62
2019-05-29T06:24:22.225Z,399.38
2019-05-29T06:25:22.207Z,388.12
2019-05-29T06:26:22.177Z,382.50
2019-05-29T06:27:22.172Z,376.88
2019-05-29T06:28:22.158Z,371.25
2019-05-29T06:29:22.154Z,360.00
2019-05-29T06:30:22.138Z,354.38
2019-05-29T06:31:22.122Z,354.38
2019-05-29T06:32:22.109Z,360.00
2019-05-29T06:33:22.208Z,348.75
2019-05-29T06:34:22.089Z,354.38
2019-05-29T06:35:22.090Z,354.38
2019-05-29T06:36:22.222Z,354.38
2019-05-29T06:37:22.060Z,354.38
2019-05-29T06:38:22.066Z,354.38
2019-05-29T06:39:22.032Z,354.38
2019-05-29T06:40:22.070Z,354.38
2019-05-29T06:41:22.014Z,354.38
2019-05-29T06:42:22.000Z,354.38
2019-05-29T06:43:21.989Z,360.00
2019-05-29T06:44:21.983Z,371.25
2019-05-29T06:45:21.964Z,393.75
2019-05-29T06:46:21.969Z,388.12
2019-05-29T06:47:21.949Z,360.00
2019-05-29T06:48:40.629Z,360.00
2019-05-29T06:49:22.919Z,354.38
2019-05-29T06:50:21.910Z,382.50
2019-05-29T06:51:21.901Z,376.88
2019-05-29T06:52:21.890Z,371.25
2019-05-29T06:53:21.879Z,371.25
2019-05-29T06:54:21.875Z,365.62
2019-05-29T06:55:21.862Z,365.62
2019-05-29T06:56:21.844Z,371.25
2019-05-29T06:57:25.794Z,382.50
2019-05-29T06:58:21.828Z,399.38
2019-05-29T06:59:21.812Z,421.88
2019-05-29T07:00:34.886Z,410.62
2019-05-29T07:01:22.788Z,376.88
2019-05-29T07:02:21.782Z,371.25
2019-05-29T07:03:21.774Z,376.88
2019-05-29T07:04:21.755Z,371.25
2019-05-29T07:05:21.742Z,376.88
2019-05-29T07:06:21.737Z,382.50
2019-05-29T07:07:21.724Z,388.12
2019-05-29T07:08:37.594Z,371.25
2019-05-29T07:09:22.700Z,354.38
2019-05-29T07:10:21.688Z,376.88
2019-05-29T07:11:21.675Z,382.50
2019-05-29T07:12:21.664Z,405.00
2019-05-29T07:13:21.661Z,427.50
2019-05-29T07:14:21.662Z,433.12
2019-05-29T07:15:21.634Z,416.25
2019-05-29T07:16:21.632Z,405.00
2019-05-29T07:17:21.616Z,393.75
2019-05-29T07:18:21.605Z,382.50
2019-05-29T07:19:34.370Z,388.12
2019-05-29T07:20:22.580Z,399.38
2019-05-29T07:21:21.566Z,410.62
2019-05-29T07:22:21.558Z,427.50
2019-05-29T07:23:21.565Z,433.12
2019-05-29T07:24:21.546Z,455.62
2019-05-29T07:25:21.530Z,461.25
2019-05-29T07:26:21.531Z,444.38
2019-05-29T07:27:21.496Z,444.38
2019-05-29T07:28:21.505Z,478.12
2019-05-29T07:29:21.476Z,511.88
2019-05-29T07:30:21.484Z,528.75
2019-05-29T07:31:21.465Z,523.12
2019-05-29T07:32:21.445Z,506.25
2019-05-29T07:33:21.433Z,500.62
2019-05-29T07:34:21.424Z,495.00
2019-05-29T07:35:21.409Z,483.75
2019-05-29T07:36:21.402Z,506.25
2019-05-29T07:37:21.406Z,534.38
2019-05-29T07:38:21.380Z,540.00
2019-05-29T07:39:21.366Z,511.88
2019-05-29T07:40:21.364Z,534.38
2019-05-29T07:41:21.344Z,545.62
2019-05-29T07:42:21.332Z,534.38
2019-05-29T07:43:21.315Z,506.25
2019-05-29T07:44:21.304Z,562.50
2019-05-29T07:45:21.292Z,534.38
2019-05-29T07:46:21.278Z,568.12
2019-05-29T07:47:21.277Z,528.75
2019-05-29T07:48:21.260Z,483.75
2019-05-29T07:49:35.871Z,472.50
2019-05-29T07:50:22.244Z,478.12
2019-05-29T07:51:21.228Z,472.50
2019-05-29T07:52:21.225Z,466.88
2019-05-29T07:53:21.204Z,478.12
2019-05-29T07:54:21.190Z,455.62
2019-05-29T07:55:23.668Z,461.25
2019-05-29T07:56:22.890Z,421.88
2019-05-29T07:57:21.166Z,399.38
2019-05-29T07:58:21.164Z,399.38
2019-05-29T07:59:21.194Z,399.38
2019-05-29T08:00:21.121Z,427.50
2019-05-29T08:01:21.112Z,421.88
2019-05-29T08:02:21.123Z,421.88
2019-05-29T08:03:21.086Z,416.25
2019-05-29T08:04:21.157Z,421.88
2019-05-29T08:05:21.064Z,421.88
2019-05-29T08:06:21.048Z,405.00
2019-05-29T08:07:21.043Z,399.38
2019-05-29T08:08:21.028Z,410.62
2019-05-29T08:09:21.041Z,416.25
2019-05-29T08:10:21.043Z,444.38
2019-05-29T08:11:20.997Z,472.50
2019-05-29T08:12:20.986Z,466.88
2019-05-29T08:13:20.976Z,433.12
2019-05-29T08:14:20.963Z,405.00
2019-05-29T08:15:20.960Z,376.88
2019-05-29T08:16:20.935Z,365.62
2019-05-29T08:17:20.928Z,388.12
2019-05-29T08:18:20.919Z,399.38
2019-05-29T08:19:20.966Z,421.88
2019-05-29T08:20:20.902Z,433.12
2019-05-29T08:21:20.906Z,478.12
2019-05-29T08:22:33.788Z,545.62
2019-05-29T08:23:21.859Z,568.12
2019-05-29T08:24:24.742Z,523.12
2019-05-29T08:25:20.862Z,472.50
2019-05-29T08:26:20.833Z,455.62
2019-05-29T08:27:20.808Z,444.38
2019-05-29T08:28:20.806Z,444.38
2019-05-29T08:29:20.788Z,438.75
2019-05-29T08:30:20.783Z,410.62
2019-05-29T08:31:20.771Z,371.25
2019-05-29T08:32:20.760Z,360.00
2019-05-29T08:33:20.773Z,354.38
2019-05-29T08:34:20.735Z,376.88
2019-05-29T08:35:20.727Z,376.88
2019-05-29T08:36:20.712Z,399.38
2019-05-29T08:37:20.699Z,438.75
2019-05-29T08:38:20.683Z,500.62
2019-05-29T08:39:35.572Z,596.25
2019-05-29T08:40:21.660Z,607.50
2019-05-29T08:41:20.730Z,613.12
2019-05-29T08:42:23.567Z,568.12
2019-05-29T08:43:20.663Z,540.00
2019-05-29T08:44:20.620Z,523.12
2019-05-29T08:45:20.600Z,495.00
2019-05-29T08:46:20.600Z,427.50
2019-05-29T08:47:20.584Z,382.50
2019-05-29T08:48:20.587Z,343.12
2019-05-29T08:49:20.586Z,326.25
2019-05-29T08:50:20.559Z,315.00
2019-05-29T08:51:20.537Z,331.88
2019-05-29T08:52:20.527Z,376.88
2019-05-29T08:53:20.531Z,405.00
2019-05-29T08:54:23.826Z,421.88
2019-05-29T08:55:20.513Z,421.88
2019-05-29T08:56:20.483Z,427.50
2019-05-29T08:57:20.472Z,450.00
2019-05-29T08:58:20.461Z,444.38
2019-05-29T08:59:20.450Z,489.38
2019-05-29T09:00:20.435Z,495.00
2019-05-29T09:01:20.419Z,495.00
2019-05-29T09:02:20.414Z,534.38
2019-05-29T09:03:20.407Z,495.00
2019-05-29T09:04:20.395Z,500.62
2019-05-29T09:05:20.386Z,517.50
2019-05-29T09:06:20.392Z,523.12
2019-05-29T09:07:20.360Z,511.88
2019-05-29T09:08:20.341Z,472.50
2019-05-29T09:09:20.333Z,427.50
2019-05-29T09:10:20.319Z,427.50
2019-05-29T09:11:20.325Z,365.62
2019-05-29T09:12:20.311Z,348.75
2019-05-29T09:13:20.285Z,337.50
2019-05-29T09:14:20.285Z,343.12
2019-05-29T09:15:21.738Z,376.88
2019-05-29T09:16:20.272Z,382.50
2019-05-29T09:17:20.241Z,388.12
2019-05-29T09:18:21.526Z,393.75
2019-05-29T09:19:21.072Z,405.00
2019-05-29T09:20:32.056Z,405.00
2019-05-29T09:21:21.228Z,421.88
2019-05-29T09:22:20.993Z,461.25
2019-05-29T09:23:20.922Z,495.00
2019-05-29T09:24:20.908Z,483.75
2019-05-29T09:25:21.172Z,483.75
2019-05-29T09:26:23.889Z,489.38
2019-05-29T09:27:21.270Z,500.62
2019-05-29T09:28:21.787Z,523.12
2019-05-29T09:29:23.311Z,562.50
2019-05-29T09:30:20.347Z,523.12
2019-05-29T09:31:20.379Z,450.00
2019-05-29T09:32:40.887Z,438.75
2019-05-29T09:33:21.857Z,399.38
2019-05-29T09:34:20.576Z,376.88
2019-05-29T09:35:21.568Z,337.50
2019-05-29T09:36:20.728Z,326.25
2019-05-29T09:37:20.481Z,320.62
2019-05-29T09:38:20.979Z,309.38
2019-05-29T09:39:21.066Z,326.25
2019-05-29T09:40:20.999Z,365.62
2019-05-29T09:41:21.707Z,405.00
2019-05-29T09:42:20.700Z,427.50
2019-05-29T09:43:23.148Z,472.50
2019-05-29T09:44:36.018Z,528.75
2019-05-29T09:45:21.560Z,579.38
2019-05-29T09:46:20.236Z,613.12
2019-05-29T09:47:20.273Z,596.25
2019-05-29T09:48:23.325Z,540.00
2019-05-29T09:49:21.814Z,472.50
2019-05-29T09:50:22.742Z,455.62
2019-05-29T09:51:21.558Z,421.88
2019-05-29T09:52:19.845Z,388.12
2019-05-29T09:53:19.838Z,348.75
2019-05-29T09:54:19.947Z,343.12
2019-05-29T09:55:19.828Z,286.88
2019-05-29T09:56:19.802Z,275.62
2019-05-29T09:57:19.788Z,281.25
2019-05-29T09:58:19.854Z,331.88
2019-05-29T09:59:19.765Z,326.25
2019-05-29T10:00:19.767Z,292.50
2019-05-29T10:01:24.133Z,315.00
2019-05-29T10:02:20.746Z,320.62
2019-05-29T10:03:19.717Z,326.25
2019-05-29T10:04:19.709Z,337.50
2019-05-29T10:05:19.700Z,360.00
2019-05-29T10:06:19.691Z,360.00
2019-05-29T10:07:19.698Z,343.12
2019-05-29T10:08:19.669Z,348.75
2019-05-29T10:09:19.654Z,360.00
2019-05-29T10:10:19.667Z,382.50
2019-05-29T10:11:19.634Z,438.75
2019-05-29T10:12:19.705Z,466.88
2019-05-29T10:13:19.612Z,495.00
2019-05-29T10:14:19.600Z,461.25
2019-05-29T10:15:19.586Z,489.38
2019-05-29T10:16:19.605Z,466.88
2019-05-29T10:17:19.571Z,416.25
2019-05-29T10:18:31.797Z,393.75
2019-05-29T10:19:20.541Z,376.88
2019-05-29T10:20:19.530Z,360.00
2019-05-29T10:21:19.521Z,354.38
2019-05-29T10:22:19.509Z,343.12
2019-05-29T10:23:20.168Z,331.88
2019-05-29T10:24:19.479Z,315.00
2019-05-29T10:25:19.467Z,286.88
2019-05-29T10:26:19.455Z,309.38
2019-05-29T10:27:19.458Z,309.38
2019-05-29T10:28:19.438Z,315.00
2019-05-29T10:29:19.439Z,331.88
2019-05-29T10:30:19.423Z,365.62
2019-05-29T10:31:19.407Z,371.25
2019-05-29T10:32:19.394Z,360.00
2019-05-29T10:33:19.397Z,320.62
2019-05-29T10:34:19.378Z,331.88
2019-05-29T10:35:19.360Z,343.12
2019-05-29T10:36:19.383Z,371.25
2019-05-29T10:37:19.395Z,371.25
2019-05-29T10:38:19.336Z,371.25
2019-05-29T10:39:19.340Z,365.62
2019-05-29T10:40:19.310Z,320.62
2019-05-29T10:41:19.312Z,315.00
2019-05-29T10:42:20.763Z,337.50
2019-05-29T10:43:33.237Z,331.88
2019-05-29T10:44:20.279Z,337.50
2019-05-29T10:45:19.304Z,309.38
2019-05-29T10:46:19.230Z,286.88
2019-05-29T10:47:19.224Z,286.88
2019-05-29T10:48:19.212Z,298.12
2019-05-29T10:49:19.194Z,337.50
2019-05-29T10:50:19.193Z,348.75
2019-05-29T10:51:19.243Z,354.38
2019-05-29T10:52:19.165Z,376.88
2019-05-29T10:53:19.209Z,416.25
2019-05-29T10:54:19.143Z,371.25
2019-05-29T10:55:19.131Z,354.38
2019-05-29T10:56:21.195Z,365.62
2019-05-29T10:57:19.107Z,348.75
2019-05-29T10:58:19.122Z,365.62
2019-05-29T10:59:19.085Z,331.88
2019-05-29T11:00:19.084Z,320.62
2019-05-29T11:01:19.091Z,315.00
2019-05-29T11:02:19.068Z,337.50
2019-05-29T11:03:19.061Z,337.50
2019-05-29T11:04:19.029Z,376.88
2019-05-29T11:05:19.058Z,348.75
2019-05-29T11:06:19.011Z,303.75
2019-05-29T11:07:19.007Z,275.62
2019-05-29T11:08:18.984Z,309.38
2019-05-29T11:09:18.972Z,331.88
2019-05-29T11:10:18.963Z,331.88
2019-05-29T11:11:18.951Z,326.25
2019-05-29T11:12:18.937Z,320.62
2019-05-29T11:13:18.931Z,320.62
2019-05-29T11:14:18.916Z,315.00
2019-05-29T11:15:21.668Z,309.38
2019-05-29T11:16:18.889Z,303.75
2019-05-29T11:17:18.883Z,298.12
2019-05-29T11:18:18.874Z,298.12
2019-05-29T11:19:18.859Z,298.12
2019-05-29T11:20:18.848Z,298.12
2019-05-29T11:21:18.841Z,303.75
2019-05-29T11:22:26.067Z,298.12
2019-05-29T11:23:19.826Z,303.75
2019-05-29T11:24:18.811Z,303.75
2019-05-29T11:25:23.536Z,309.38
2019-05-29T11:26:19.780Z,320.62
2019-05-29T11:27:18.767Z,343.12
2019-05-29T11:28:18.780Z,360.00
2019-05-29T11:29:18.757Z,354.38
2019-05-29T11:30:18.755Z,343.12
2019-05-29T11:31:18.727Z,337.50
2019-05-29T11:32:18.719Z,326.25
2019-05-29T11:33:18.720Z,309.38
2019-05-29T11:34:18.685Z,298.12
2019-05-29T11:35:18.682Z,286.88
2019-05-29T11:36:18.705Z,281.25
2019-05-29T11:37:18.659Z,286.88
2019-05-29T11:38:18.643Z,292.50
2019-05-29T11:39:18.659Z,292.50
2019-05-29T11:40:18.628Z,292.50
2019-05-29T11:41:26.217Z,286.88
2019-05-29T11:42:27.527Z,320.62
2019-05-29T11:43:19.604Z,275.62
2019-05-29T11:44:18.580Z,281.25
2019-05-29T11:45:18.574Z,292.50
2019-05-29T11:46:18.609Z,320.62
2019-05-29T11:47:18.613Z,286.88
2019-05-29T11:48:18.533Z,264.38
2019-05-29T11:49:18.517Z,241.88
2019-05-29T11:50:20.050Z,236.25
2019-05-29T11:51:18.500Z,236.25
2019-05-29T11:52:24.551Z,281.25
2019-05-29T11:53:19.537Z,286.88
2019-05-29T11:54:18.471Z,281.25
2019-05-29T11:55:18.452Z,275.62
2019-05-29T11:56:18.438Z,275.62
2019-05-29T11:57:18.424Z,270.00
2019-05-29T11:58:30.526Z,264.38
2019-05-29T11:59:19.413Z,258.75
2019-05-29T12:00:20.610Z,258.75
2019-05-29T12:01:18.381Z,264.38
2019-05-29T12:02:18.406Z,275.62
2019-05-29T12:03:18.378Z,281.25
2019-05-29T12:04:26.489Z,298.12
2019-05-29T12:05:19.538Z,315.00
2019-05-29T12:06:18.326Z,343.12
2019-05-29T12:07:18.317Z,337.50
2019-05-29T12:08:18.321Z,303.75
2019-05-29T12:09:32.144Z,303.75
2019-05-29T12:10:19.281Z,275.62
2019-05-29T12:11:18.268Z,264.38
2019-05-29T12:12:18.280Z,270.00
2019-05-29T12:13:18.269Z,298.12
2019-05-29T12:14:18.233Z,286.88
2019-05-29T12:15:18.923Z,258.75
2019-05-29T12:16:18.212Z,281.25
2019-05-29T12:17:18.199Z,275.62
2019-05-29T12:18:23.945Z,270.00
2019-05-29T12:19:19.201Z,286.88
2019-05-29T12:20:27.970Z,315.00
2019-05-29T12:21:19.158Z,337.50
2019-05-29T12:22:18.142Z,337.50
2019-05-29T12:23:25.873Z,320.62
2019-05-29T12:24:19.172Z,298.12
2019-05-29T12:25:18.124Z,292.50
2019-05-29T12:26:22.798Z,298.12
2019-05-29T12:27:19.090Z,298.12
2019-05-29T12:28:18.082Z,298.12
2019-05-29T12:29:18.074Z,298.12
2019-05-29T12:30:18.058Z,298.12
2019-05-29T12:31:18.056Z,298.12
2019-05-29T12:32:18.093Z,320.62
2019-05-29T12:33:18.055Z,343.12
2019-05-29T12:34:19.453Z,337.50
2019-05-29T12:35:17.999Z,337.50
2019-05-29T12:36:17.995Z,320.62
2019-05-29T12:37:17.996Z,309.38
2019-05-29T12:38:17.962Z,298.12
2019-05-29T12:39:17.978Z,292.50
2019-05-29T12:40:17.943Z,292.50
2019-05-29T12:41:17.934Z,281.25
2019-05-29T12:42:17.931Z,258.75